Wyatt, IN (46595)

4:10 PM EDT on October 21, 2014 (GMT -0400)
Old Reverewood | Change Station
CLOSE
Current Station
Personal Weather Station
Location: Mishawaka, IN
Elevation: 741 ft
Nearby Weather Stations

Elev 741 ft 41.65 °N, 86.13 °W | Updated 43 seconds ago

Overcast
Overcast
52.2 °F
Feels Like 52.2 °F
N
23.0
Wind Variable Wind from ENE
Gusts 28.0 mph

Today
High -- | Low -- °F
--% Chance of Precip.
Yesterday
High -- | Low -- °F
Precip. -- in
8:03 AM 6:54 PM
Waning Crescent, 4% visible
Pressure 30.16 in
Visibility 10.0 miles
Clouds Mostly Cloudy 2900 ft
Overcast 3400 ft
Dew Point 44 °F
Humidity 75%
Rainfall 0.01 in
Snow Depth Not available.
UV 1 out of 12
Pollen 1.20 out of 12
Air Quality Not available.
Flu Activity Sporadic
METAR KSBN 211954Z 35013KT 10SM BKN029 OVC034 11/04 A3014 RMK AO2 SLP211 T01060044

More Conditions Fewer Conditions

Pressure 30.16 in
Visibility 10.0 miles
Clouds Mostly Cloudy 2900 ft
Overcast 3400 ft
Dew Point 44 °F
Humidity 75%
Rainfall 0.01 in
Snow Depth Not available.
UV 1 out of 12
Pollen 1.20 out of 12
Air Quality Not available.
Flu Activity Sporadic
METAR KSBN 211954Z 35013KT 10SM BKN029 OVC034 11/04 A3014 RMK AO2 SLP211 T01060044

More Conditions Fewer Conditions

10-Day Weather Forecast

Almanac

Astronomy

Oct. 21, 2014 Rise Set
Actual Time 8:03 AM EDT 6:54 PM EDT
Civil Twilight 7:35 AM EDT 7:22 PM EDT
Nautical Twilight 7:02 AM EDT 7:54 PM EDT
Astronomical Twilight 6:30 AM EDT 8:26 PM EDT
Moon 5:45 AM EDT 5:49 PM EDT
Length of Visible Light 11h 47m
Length of Day
10h 50m
Tomorrow will be 2m 37s shorter.
Waning Crescent, 4% of the Moon is Illuminated
Today
Waning Crescent
Oct 23
New
Oct 30
First Quarter
Nov 6
Full
Nov 14
Last Quarter

Today's Extremes

State Highs State Lows

Community

WunderPhotos

Upload Photos

1,763,758 photos uploaded!

Nearby

Air Quality

  Air Quality AQ Index Pollutant
Tuesday Good
OZONE
Tuesday Good
PM2.5
Wednesday Good
OZONE
Wednesday Good
PM2.5
Thursday Moderate
PM2.5
Thursday Good
OZONE
Friday Moderate
PM2.5
Friday Good
OZONE

Snow Depth

Station Depth Elevation
No new snow has been reported.

Earthquake Activity

City Distance Mag. Time & Date
No recent earthquake activity has been reported nearby.
Minimum magnitude displayed is 2.5.

Coastal Water Temperatures

Place Temperature
No Stations Reporting

Nearby Weather Stations